Time;durP1;ratioP1;P1;durP2;ratioP2;P2;SDS_P1;SDS_P2;PMS_P1;PMS_P2;Temp;Humidity;BMP_temperature;BMP_pressure;BME280_temperature;BME280_humidity;BME280_pressure;Samples;Min_cycle;Max_cycle;Signal;HPM_P1;HPM_P2
2024/01/30 00:01:36;;;;;;;12.45;8.05;;;8.10;99.90;;;;;;5032147;28;20022;-73
2024/01/30 00:04:02;;;;;;;13.23;8.10;;;8.10;99.90;;;;;;5031839;28;20029;-73
2024/01/30 00:06:27;;;;;;;12.65;7.82;;;8.00;99.90;;;;;;5051639;28;20495;-73
2024/01/30 00:08:53;;;;;;;15.60;8.15;;;8.10;99.90;;;;;;5047461;28;20053;-74
2024/01/30 00:11:19;;;;;;;16.48;8.27;;;8.10;99.90;;;;;;5025477;28;20026;-73
2024/01/30 00:13:44;;;;;;;14.20;8.27;;;8.00;99.90;;;;;;5012011;28;20079;-73
2024/01/30 00:16:20;;;;;;;11.45;8.13;;;8.00;99.90;;;;;;5025623;28;20393;-74
2024/01/30 00:18:46;;;;;;;12.25;8.02;;;8.00;99.90;;;;;;5031547;28;20021;-73
2024/01/30 00:21:11;;;;;;;13.73;8.35;;;7.90;99.90;;;;;;5032049;28;20504;-73
2024/01/30 00:23:37;;;;;;;14.10;7.40;;;7.90;99.90;;;;;;5032693;28;20040;-74
2024/01/30 00:26:03;;;;;;;10.95;7.53;;;7.90;99.90;;;;;;5031643;28;20546;-74
2024/01/30 00:28:28;;;;;;;13.10;8.25;;;7.80;99.90;;;;;;5032138;28;20037;-73
2024/01/30 00:30:54;;;;;;;11.40;8.15;;;7.80;99.90;;;;;;5031322;28;20037;-73
2024/01/30 00:33:19;;;;;;;13.82;7.68;;;7.80;99.90;;;;;;5031779;28;20029;-74
2024/01/30 00:35:45;;;;;;;12.70;8.13;;;7.80;99.90;;;;;;5027631;28;20036;-74
2024/01/30 00:38:10;;;;;;;12.60;7.22;;;7.80;99.90;;;;;;5014660;28;20029;-74
2024/01/30 00:40:36;;;;;;;10.52;7.70;;;7.80;99.90;;;;;;5031652;28;20030;-73
2024/01/30 00:43:01;;;;;;;16.15;8.88;;;7.80;99.90;;;;;;5030302;28;20029;-74
2024/01/30 00:45:27;;;;;;;13.50;8.27;;;7.80;99.90;;;;;;5042965;28;20036;-73
2024/01/30 00:47:53;;;;;;;14.93;8.30;;;7.80;99.90;;;;;;5035385;28;20045;-73
2024/01/30 00:50:18;;;;;;;13.50;7.80;;;7.70;99.90;;;;;;5031576;28;20041;-73
2024/01/30 00:52:45;;;;;;;12.98;8.57;;;7.80;99.90;;;;;;5030959;28;20481;-73
2024/01/30 00:55:11;;;;;;;15.10;8.82;;;7.70;99.90;;;;;;5031808;28;20481;-73
2024/01/30 00:57:36;;;;;;;13.15;8.75;;;7.70;99.90;;;;;;5031384;28;20036;-73
2024/01/30 01:00:03;;;;;;;15.30;8.82;;;7.70;99.90;;;;;;5030656;28;20033;-73
2024/01/30 01:02:28;;;;;;;16.38;9.07;;;7.70;99.90;;;;;;5030115;28;20018;-73
2024/01/30 01:04:54;;;;;;;12.82;9.10;;;7.60;99.90;;;;;;5030715;28;20496;-75
2024/01/30 01:07:20;;;;;;;15.68;9.07;;;7.70;99.90;;;;;;5036387;28;20029;-73
2024/01/30 01:09:45;;;;;;;13.40;9.15;;;7.70;99.90;;;;;;5030750;28;20501;-73
2024/01/30 01:12:11;;;;;;;14.38;8.55;;;7.70;99.90;;;;;;5031456;28;20029;-74
2024/01/30 01:14:36;;;;;;;14.20;9.38;;;7.60;99.90;;;;;;5031301;28;20100;-74
2024/01/30 01:17:02;;;;;;;13.00;8.80;;;7.60;99.90;;;;;;5030995;28;20021;-73
2024/01/30 01:19:27;;;;;;;15.52;8.95;;;7.60;99.90;;;;;;5031046;28;20033;-73
2024/01/30 01:21:53;;;;;;;15.40;9.13;;;7.50;99.90;;;;;;5030975;28;20026;-73
2024/01/30 01:24:19;;;;;;;17.15;9.38;;;7.50;99.90;;;;;;5031496;28;20037;-73
2024/01/30 01:26:44;;;;;;;13.98;8.65;;;7.50;99.90;;;;;;5030819;28;20025;-73
2024/01/30 01:29:11;;;;;;;14.93;8.63;;;7.50;99.90;;;;;;5031186;28;20044;-73
2024/01/30 01:31:43;;;;;;;15.75;9.55;;;7.50;99.90;;;;;;5031237;28;20063;-73
2024/01/30 01:34:12;;;;;;;13.25;9.05;;;7.50;99.90;;;;;;5031187;28;20030;-74
2024/01/30 01:36:39;;;;;;;16.55;9.85;;;7.50;99.90;;;;;;5039155;28;20034;-73
2024/01/30 01:39:05;;;;;;;15.82;10.13;;;7.50;99.90;;;;;;5030595;28;20033;-73
2024/01/30 01:41:33;;;;;;;14.00;8.95;;;7.50;99.90;;;;;;5031246;28;20029;-73
2024/01/30 01:44:00;;;;;;;15.25;9.80;;;7.60;99.90;;;;;;5031465;28;20030;-73
2024/01/30 01:46:32;;;;;;;16.02;9.07;;;7.60;99.90;;;;;;5030982;28;20060;-73
2024/01/30 01:48:58;;;;;;;;;;;7.60;99.90;;;;;;5030935;28;20475;-73
2024/01/30 01:51:26;;;;;;;13.38;8.02;;;7.50;99.90;;;;;;5030988;28;19905;-73
2024/01/30 01:53:54;;;;;;;13.75;8.55;;;7.60;99.90;;;;;;5030629;28;20026;-73
2024/01/30 01:56:21;;;;;;;15.15;9.32;;;7.50;99.90;;;;;;5011345;28;20028;-73
2024/01/30 01:58:48;;;;;;;15.48;9.02;;;7.60;99.90;;;;;;5019034;28;20054;-73
2024/01/30 02:01:15;;;;;;;13.60;9.25;;;7.50;99.90;;;;;;5030756;28;20393;-73
2024/01/30 02:03:41;;;;;;;12.82;8.50;;;7.50;99.90;;;;;;5030925;28;20022;-73
2024/01/30 02:06:07;;;;;;;13.80;9.05;;;7.50;99.90;;;;;;5043920;28;20028;-74
2024/01/30 02:08:33;;;;;;;14.40;8.85;;;7.50;99.90;;;;;;5037356;28;20038;-73
2024/01/30 02:10:59;;;;;;;16.80;9.77;;;7.50;99.90;;;;;;5030333;28;20026;-73
2024/01/30 02:13:25;;;;;;;13.70;9.00;;;7.50;99.90;;;;;;5033309;28;20061;-73
2024/01/30 02:15:51;;;;;;;14.20;9.13;;;7.50;99.90;;;;;;5043479;28;20480;-73
2024/01/30 02:18:17;;;;;;;18.92;10.32;;;7.50;99.90;;;;;;5035292;28;20093;-73
2024/01/30 02:20:43;;;;;;;13.02;8.82;;;7.50;99.90;;;;;;5049083;28;20108;-74
2024/01/30 02:23:12;;;;;;;13.35;9.02;;;7.60;99.90;;;;;;5043767;28;20101;-73
2024/01/30 02:25:44;;;;;;;16.05;9.85;;;7.60;99.90;;;;;;5038632;28;20112;-73
2024/01/30 02:28:13;;;;;;;14.70;9.00;;;7.60;99.90;;;;;;5053294;28;20040;-73
2024/01/30 02:30:46;;;;;;;13.65;8.48;;;7.60;99.90;;;;;;5033912;28;20096;-73
2024/01/30 02:33:12;;;;;;;13.32;9.10;;;7.60;99.90;;;;;;5034281;28;20024;-73
2024/01/30 02:35:37;;;;;;;14.63;8.98;;;7.70;99.90;;;;;;5049799;28;20025;-73
2024/01/30 02:38:04;;;;;;;14.60;8.50;;;7.70;99.90;;;;;;5035927;28;20021;-73
2024/01/30 02:40:29;;;;;;;14.48;9.07;;;7.70;99.90;;;;;;5034038;28;20029;-73
2024/01/30 02:42:56;;;;;;;15.43;9.32;;;7.70;99.90;;;;;;5033352;28;20044;-73
2024/01/30 02:45:21;;;;;;;11.55;8.65;;;7.70;99.90;;;;;;5043610;28;20108;-73
2024/01/30 02:47:47;;;;;;;14.70;8.25;;;7.70;99.90;;;;;;5053245;28;20663;-73
2024/01/30 02:50:14;;;;;;;15.52;9.02;;;7.70;99.90;;;;;;5053292;28;20062;-73
2024/01/30 02:52:39;;;;;;;15.20;9.50;;;7.70;99.90;;;;;;5047303;28;20022;-74
2024/01/30 02:55:05;;;;;;;13.65;8.60;;;7.70;99.90;;;;;;5037548;28;20112;-73
2024/01/30 02:57:31;;;;;;;14.48;8.77;;;7.60;99.90;;;;;;5053449;28;20017;-73
2024/01/30 02:59:56;;;;;;;14.40;9.15;;;7.60;99.90;;;;;;5052857;28;20032;-73
2024/01/30 03:02:22;;;;;;;11.90;8.20;;;7.60;99.90;;;;;;5034539;28;20120;-73
2024/01/30 03:04:48;;;;;;;13.15;9.15;;;7.60;99.90;;;;;;5046438;28;20473;-73
2024/01/30 03:07:13;;;;;;;17.65;9.25;;;7.60;99.90;;;;;;5042970;28;20417;-73
2024/01/30 03:09:42;;;;;;;11.77;8.10;;;7.50;99.90;;;;;;5033358;28;20041;-74
2024/01/30 03:12:08;;;;;;;15.75;9.00;;;7.50;99.90;;;;;;5033889;28;20080;-73
2024/01/30 03:14:33;;;;;;;13.00;8.02;;;7.50;99.90;;;;;;5035159;28;20511;-73
2024/01/30 03:16:59;;;;;;;12.90;8.68;;;7.50;99.90;;;;;;5032878;28;20093;-73
2024/01/30 03:19:24;;;;;;;16.10;8.02;;;7.50;99.90;;;;;;5031525;28;20044;-73
2024/01/30 03:21:51;;;;;;;13.10;9.60;;;7.50;99.90;;;;;;5032474;28;20096;-73
2024/01/30 03:24:17;;;;;;;14.70;9.00;;;7.50;99.90;;;;;;5015538;28;20072;-73
2024/01/30 03:26:43;;;;;;;15.25;8.55;;;7.50;99.90;;;;;;5032702;28;20021;-73
2024/01/30 03:29:08;;;;;;;14.82;8.13;;;7.40;99.90;;;;;;5032934;28;20025;-73
2024/01/30 03:31:34;;;;;;;18.20;9.10;;;7.50;99.90;;;;;;5032725;28;20495;-73
2024/01/30 03:34:00;;;;;;;12.40;8.32;;;7.50;99.90;;;;;;5041934;28;20041;-73
2024/01/30 03:36:26;;;;;;;14.00;9.68;;;7.50;99.90;;;;;;5032807;28;20504;-74
2024/01/30 03:38:51;;;;;;;15.45;9.32;;;7.50;99.90;;;;;;5032400;28;20053;-73
2024/01/30 03:41:17;;;;;;;15.90;8.90;;;7.60;99.90;;;;;;5032706;28;20025;-73
2024/01/30 03:43:42;;;;;;;15.05;8.70;;;7.60;99.90;;;;;;5035188;28;20032;-73
2024/01/30 03:46:08;;;;;;;13.45;8.52;;;7.60;99.90;;;;;;5043823;28;20084;-74
2024/01/30 03:48:33;;;;;;;12.25;8.52;;;7.70;99.90;;;;;;5048224;28;20037;-73
2024/01/30 03:50:59;;;;;;;12.80;8.20;;;7.70;99.90;;;;;;5032025;28;20026;-74
2024/01/30 03:53:25;;;;;;;12.02;8.05;;;7.70;99.90;;;;;;5032571;28;20035;-73
2024/01/30 03:55:51;;;;;;;11.68;7.97;;;7.70;99.90;;;;;;5031523;28;20026;-73
2024/01/30 03:58:16;;;;;;;14.18;7.97;;;7.70;99.90;;;;;;5032369;28;20022;-74
2024/01/30 04:00:42;;;;;;;14.00;8.38;;;7.80;99.90;;;;;;5032166;28;20373;-73
2024/01/30 04:03:07;;;;;;;12.07;8.20;;;7.80;99.90;;;;;;5032020;28;20057;-73
2024/01/30 04:05:33;;;;;;;12.13;8.10;;;7.80;99.90;;;;;;5040564;28;20029;-73
2024/01/30 04:07:59;;;;;;;17.08;8.70;;;7.80;99.90;;;;;;5031863;28;20032;-73
2024/01/30 04:10:25;;;;;;;14.07;8.48;;;7.80;99.90;;;;;;5031868;28;20029;-73
2024/01/30 04:12:51;;;;;;;12.25;7.68;;;7.80;99.90;;;;;;5031612;28;20025;-73
2024/01/30 04:15:17;;;;;;;12.07;7.82;;;7.80;99.90;;;;;;5031935;28;20037;-73
2024/01/30 04:17:43;;;;;;;11.60;7.53;;;7.80;99.90;;;;;;5031769;28;20024;-73
2024/01/30 04:20:14;;;;;;;13.15;8.50;;;7.80;99.90;;;;;;5031897;28;20523;-73
2024/01/30 04:22:39;;;;;;;13.82;8.73;;;7.80;99.90;;;;;;5032175;28;20034;-73
2024/01/30 04:25:05;;;;;;;11.95;7.72;;;7.90;99.90;;;;;;5040456;28;20041;-73
2024/01/30 04:27:31;;;;;;;11.98;8.38;;;7.80;99.90;;;;;;5031782;28;20037;-73
2024/01/30 04:29:56;;;;;;;14.73;8.50;;;7.80;99.90;;;;;;5031813;28;20296;-73
2024/01/30 04:32:22;;;;;;;11.65;7.72;;;7.90;99.90;;;;;;5031725;28;20083;-73
2024/01/30 04:34:47;;;;;;;13.85;7.68;;;7.90;99.90;;;;;;5030760;28;20045;-73
2024/01/30 04:37:13;;;;;;;13.38;8.00;;;7.90;99.90;;;;;;5019689;28;20037;-74
2024/01/30 04:39:38;;;;;;;13.38;7.47;;;7.90;99.90;;;;;;5031463;28;20025;-73
2024/01/30 04:42:04;;;;;;;15.48;7.90;;;7.90;99.90;;;;;;5031115;28;20462;-74
2024/01/30 04:44:30;;;;;;;12.57;7.95;;;7.90;99.90;;;;;;5036522;28;20036;-73
2024/01/30 04:46:58;;;;;;;12.52;6.80;;;7.90;99.90;;;;;;5051149;28;20057;-73
2024/01/30 04:49:24;;;;;;;10.88;7.50;;;7.90;99.90;;;;;;5035578;28;20053;-73
2024/01/30 04:51:50;;;;;;;12.70;7.05;;;7.90;99.90;;;;;;5031075;28;20029;-73
2024/01/30 04:54:15;;;;;;;12.82;8.55;;;8.00;99.90;;;;;;5031508;28;20489;-73
2024/01/30 04:56:41;;;;;;;14.00;8.02;;;8.00;99.90;;;;;;5031484;28;20039;-73
2024/01/30 04:59:08;;;;;;;12.32;7.45;;;8.00;99.90;;;;;;5031323;28;20025;-73
2024/01/30 05:01:34;;;;;;;15.77;8.10;;;8.00;99.90;;;;;;5031608;28;20025;-73
2024/01/30 05:04:00;;;;;;;11.20;6.82;;;8.00;99.90;;;;;;5036870;28;20508;-73
2024/01/30 05:06:29;;;;;;;13.52;7.50;;;8.10;99.90;;;;;;5051751;28;20063;-73
2024/01/30 05:08:54;;;;;;;11.40;7.93;;;8.10;99.90;;;;;;5035557;28;20464;-73
2024/01/30 05:11:20;;;;;;;10.85;7.05;;;8.10;99.90;;;;;;5031345;28;20113;-73
2024/01/30 05:13:45;;;;;;;10.30;7.40;;;8.10;99.90;;;;;;5030397;28;20087;-74
2024/01/30 05:16:11;;;;;;;10.60;6.97;;;8.10;99.90;;;;;;5031217;28;20064;-73
2024/01/30 05:18:36;;;;;;;12.57;6.97;;;8.10;99.90;;;;;;5031384;28;20382;-73
2024/01/30 05:21:03;;;;;;;11.00;7.07;;;8.20;99.90;;;;;;5030889;28;20033;-73
2024/01/30 05:23:29;;;;;;;12.35;7.25;;;8.20;99.90;;;;;;5031166;28;20071;-73
2024/01/30 05:25:54;;;;;;;11.05;7.32;;;8.20;99.90;;;;;;5030856;28;20037;-73
2024/01/30 05:28:20;;;;;;;10.68;7.30;;;8.20;99.90;;;;;;5031076;28;20240;-73
2024/01/30 05:30:45;;;;;;;11.15;7.43;;;8.20;99.90;;;;;;5030767;28;20044;-74
2024/01/30 05:33:12;;;;;;;11.68;6.47;;;8.20;99.90;;;;;;5037333;28;20023;-73
2024/01/30 05:35:37;;;;;;;13.00;7.32;;;8.20;99.90;;;;;;5046729;28;20036;-73
2024/01/30 05:38:04;;;;;;;12.13;8.07;;;8.20;99.90;;;;;;5030689;28;20026;-73
2024/01/30 05:40:30;;;;;;;12.43;7.82;;;8.20;99.90;;;;;;5031082;28;20060;-73
2024/01/30 05:42:55;;;;;;;9.18;6.05;;;8.20;99.90;;;;;;5030775;28;20409;-73
2024/01/30 05:45:23;;;;;;;13.02;7.82;;;8.20;99.90;;;;;;5038210;28;20095;-73
2024/01/30 05:47:48;;;;;;;12.60;7.38;;;8.20;99.90;;;;;;5032136;28;20126;-73
2024/01/30 05:50:14;;;;;;;12.70;6.57;;;8.20;99.90;;;;;;5034512;28;20121;-73
2024/01/30 05:52:40;;;;;;;11.60;6.07;;;8.20;99.90;;;;;;5034831;28;20037;-73
2024/01/30 05:55:06;;;;;;;10.73;6.63;;;8.20;99.90;;;;;;5033130;28;20032;-74
2024/01/30 05:57:31;;;;;;;10.77;7.18;;;8.20;99.90;;;;;;5034424;28;20029;-73
2024/01/30 05:59:57;;;;;;;9.45;6.60;;;8.20;99.90;;;;;;5034287;28;20033;-73
2024/01/30 06:02:23;;;;;;;10.93;7.35;;;8.20;99.90;;;;;;5036494;28;20030;-73
2024/01/30 06:04:48;;;;;;;12.32;7.40;;;8.20;99.90;;;;;;5035028;28;20473;-74
2024/01/30 06:07:14;;;;;;;14.35;7.93;;;8.30;99.90;;;;;;5034905;28;20036;-73
2024/01/30 06:09:40;;;;;;;10.65;6.18;;;8.30;99.90;;;;;;5034251;28;20103;-73
2024/01/30 06:12:06;;;;;;;10.23;6.88;;;8.30;99.90;;;;;;5034028;28;20092;-73
2024/01/30 06:14:32;;;;;;;12.18;7.13;;;8.30;99.90;;;;;;5039544;28;20207;-73
2024/01/30 06:16:59;;;;;;;10.05;6.45;;;8.40;99.90;;;;;;5033712;28;20385;-73
2024/01/30 06:19:24;;;;;;;9.00;6.32;;;8.40;99.90;;;;;;5034260;28;20025;-73
2024/01/30 06:21:50;;;;;;;11.32;7.05;;;8.40;99.90;;;;;;5033699;28;20029;-74
2024/01/30 06:24:15;;;;;;;11.10;6.93;;;8.40;99.90;;;;;;5033791;28;20029;-73
2024/01/30 06:26:41;;;;;;;13.10;6.63;;;8.40;99.90;;;;;;5033820;28;20024;-73
2024/01/30 06:29:07;;;;;;;11.57;6.88;;;8.50;99.90;;;;;;5033959;28;20083;-73
2024/01/30 06:31:33;;;;;;;11.73;7.45;;;8.50;99.90;;;;;;5034014;28;20072;-73
2024/01/30 06:33:58;;;;;;;10.40;6.85;;;8.40;99.90;;;;;;5033647;28;20025;-73
2024/01/30 06:36:24;;;;;;;13.15;6.43;;;8.50;99.90;;;;;;5033732;28;20033;-73
2024/01/30 06:38:50;;;;;;;9.63;6.35;;;8.50;99.90;;;;;;5033598;28;20477;-73
2024/01/30 06:41:15;;;;;;;9.32;6.18;;;8.50;99.90;;;;;;5033972;28;20101;-73
2024/01/30 06:43:41;;;;;;;9.70;6.18;;;8.50;99.90;;;;;;5033134;28;20034;-73
2024/01/30 06:46:06;;;;;;;11.32;6.97;;;8.50;99.90;;;;;;5034230;28;20422;-73
2024/01/30 06:48:32;;;;;;;11.82;6.22;;;8.50;99.90;;;;;;5038071;28;20088;-73
2024/01/30 06:50:58;;;;;;;10.82;6.47;;;8.50;99.90;;;;;;5033353;28;20025;-73
2024/01/30 06:53:24;;;;;;;8.18;5.53;;;8.50;99.90;;;;;;5033057;28;20021;-73
2024/01/30 06:55:51;;;;;;;11.15;6.55;;;8.50;99.90;;;;;;5033099;28;20033;-73
2024/01/30 06:58:17;;;;;;;11.77;6.20;;;8.50;99.90;;;;;;5032878;28;20040;-73
2024/01/30 07:00:42;;;;;;;11.48;5.95;;;8.50;99.90;;;;;;5037741;28;20092;-73
2024/01/30 07:03:08;;;;;;;10.75;6.22;;;8.50;99.90;;;;;;5053262;28;20035;-73
2024/01/30 07:05:33;;;;;;;8.68;6.60;;;8.50;99.90;;;;;;5034548;28;20487;-74
2024/01/30 07:07:59;;;;;;;13.52;6.47;;;8.50;99.90;;;;;;5033019;28;20045;-73
2024/01/30 07:10:24;;;;;;;10.95;6.43;;;8.50;99.90;;;;;;5033250;28;20033;-73
2024/01/30 07:12:50;;;;;;;11.00;6.95;;;8.50;99.90;;;;;;5035920;28;20116;-73
2024/01/30 07:15:19;;;;;;;11.57;5.97;;;8.50;99.90;;;;;;5037060;28;20033;-74
2024/01/30 07:17:45;;;;;;;10.57;6.10;;;8.50;99.90;;;;;;5033061;28;20022;-73
2024/01/30 07:20:11;;;;;;;13.45;6.47;;;8.40;99.90;;;;;;5032436;28;20021;-74
2024/01/30 07:22:37;;;;;;;9.27;6.78;;;8.40;99.90;;;;;;5036285;28;20367;-73
2024/01/30 07:25:03;;;;;;;10.25;6.25;;;8.40;99.90;;;;;;5032640;28;20507;-73
2024/01/30 07:27:28;;;;;;;9.45;5.80;;;8.40;99.90;;;;;;5032454;28;20497;-73
2024/01/30 07:29:54;;;;;;;9.93;6.50;;;8.40;99.90;;;;;;5032542;28;20492;-73
2024/01/30 07:32:19;;;;;;;12.18;6.07;;;8.40;99.90;;;;;;5032277;28;20029;-73
2024/01/30 07:34:45;;;;;;;11.57;7.00;;;8.40;99.90;;;;;;5032655;28;20029;-74
2024/01/30 07:37:12;;;;;;;9.25;6.32;;;8.40;99.90;;;;;;5032628;28;20025;-73
2024/01/30 07:39:38;;;;;;;10.60;6.22;;;8.40;99.90;;;;;;5032652;28;20065;-73
2024/01/30 07:42:04;;;;;;;10.20;5.65;;;8.30;99.90;;;;;;5033503;28;20103;-73
2024/01/30 07:44:30;;;;;;;9.32;6.20;;;8.40;99.90;;;;;;5041749;28;20383;-73
2024/01/30 07:46:55;;;;;;;9.15;6.20;;;8.40;99.90;;;;;;5032378;28;20536;-73
2024/01/30 07:49:21;;;;;;;10.02;6.50;;;8.40;99.90;;;;;;5030797;28;20045;-73
2024/01/30 07:51:46;;;;;;;11.38;6.32;;;8.40;99.90;;;;;;5038607;28;20108;-73
2024/01/30 07:54:15;;;;;;;9.20;5.95;;;8.50;99.90;;;;;;5032439;28;20152;-73
2024/01/30 07:56:41;;;;;;;10.27;7.03;;;8.50;99.90;;;;;;5032471;28;20428;-73
2024/01/30 07:59:11;;;;;;;12.27;6.53;;;8.50;99.90;;;;;;5032449;28;20017;-73
2024/01/30 08:01:36;;;;;;;10.75;6.95;;;8.60;99.90;;;;;;5037523;28;20408;-73
2024/01/30 08:04:02;;;;;;;9.43;6.38;;;8.60;99.90;;;;;;5046175;28;20029;-73
2024/01/30 08:06:28;;;;;;;11.00;6.55;;;8.70;99.90;;;;;;5031837;28;20030;-73
2024/01/30 08:08:53;;;;;;;11.38;6.85;;;8.70;99.90;;;;;;5030621;28;20071;-73
2024/01/30 08:11:25;;;;;;;9.15;6.65;;;8.80;99.90;;;;;;5030975;28;20025;-73
2024/01/30 08:13:52;;;;;;;10.68;6.25;;;8.80;99.90;;;;;;5039001;28;20024;-73
2024/01/30 08:16:17;;;;;;;8.73;6.13;;;8.90;99.90;;;;;;5032921;28;20026;-73
2024/01/30 08:18:43;;;;;;;10.52;6.40;;;9.00;99.90;;;;;;5031554;28;20033;-73
2024/01/30 08:21:09;;;;;;;10.50;5.72;;;9.00;99.90;;;;;;5032162;28;20067;-74
2024/01/30 08:23:35;;;;;;;11.65;6.60;;;9.10;99.90;;;;;;5039610;28;20039;-73
2024/01/30 08:26:00;;;;;;;11.52;6.00;;;9.20;99.90;;;;;;5035442;28;20036;-74
2024/01/30 08:28:26;;;;;;;10.27;6.30;;;9.20;99.90;;;;;;5031962;28;20021;-73
2024/01/30 08:30:52;;;;;;;10.80;6.40;;;9.30;99.90;;;;;;5030916;28;20393;-73
2024/01/30 08:33:18;;;;;;;10.23;6.50;;;9.30;99.90;;;;;;5033395;28;20041;-73
2024/01/30 08:35:44;;;;;;;11.80;6.75;;;9.40;99.90;;;;;;5047990;28;20026;-74
2024/01/30 08:38:09;;;;;;;9.98;6.03;;;9.40;99.90;;;;;;5031852;28;20033;-73
2024/01/30 08:40:35;;;;;;;11.45;6.80;;;9.50;99.90;;;;;;5031304;28;20025;-73
2024/01/30 08:43:00;;;;;;;12.02;7.00;;;9.50;99.90;;;;;;5031132;28;20025;-74
2024/01/30 08:45:26;;;;;;;10.60;6.55;;;9.50;99.90;;;;;;5036698;28;20087;-73
2024/01/30 08:47:52;;;;;;;11.27;6.05;;;9.60;99.90;;;;;;5030627;28;20048;-73
2024/01/30 08:50:17;;;;;;;10.18;5.90;;;9.60;99.90;;;;;;5031495;28;20474;-73
2024/01/30 08:52:43;;;;;;;9.82;6.40;;;9.60;99.90;;;;;;5030849;28;20029;-73
2024/01/30 08:55:09;;;;;;;11.32;7.03;;;9.70;99.90;;;;;;5041062;28;20029;-73
2024/01/30 08:57:34;;;;;;;12.13;6.40;;;9.70;99.90;;;;;;5050178;28;20029;-73
2024/01/30 09:00:04;;;;;;;9.85;6.20;;;9.70;99.90;;;;;;5034588;28;20529;-73
2024/01/30 09:02:29;;;;;;;11.23;6.45;;;9.80;99.90;;;;;;5031476;28;20026;-73
2024/01/30 09:04:55;;;;;;;10.20;6.85;;;9.80;99.90;;;;;;5030476;28;20120;-73
2024/01/30 09:07:21;;;;;;;11.55;6.43;;;9.90;99.90;;;;;;5041160;28;20465;-73
2024/01/30 09:09:46;;;;;;;9.90;6.60;;;10.00;99.90;;;;;;5038697;28;20381;-73
2024/01/30 09:12:12;;;;;;;11.98;6.25;;;10.10;99.90;;;;;;5031351;28;20030;-74
2024/01/30 09:14:38;;;;;;;10.75;6.25;;;10.10;99.90;;;;;;5031245;28;20115;-73
2024/01/30 09:17:04;;;;;;;12.48;7.07;;;10.20;99.90;;;;;;5034926;28;20055;-73
2024/01/30 09:19:30;;;;;;;12.70;7.07;;;10.20;99.90;;;;;;5040119;28;20040;-74
2024/01/30 09:21:56;;;;;;;11.13;5.55;;;10.30;99.90;;;;;;5032569;28;20029;-73
2024/01/30 09:24:21;;;;;;;11.35;6.53;;;10.40;99.90;;;;;;5034974;28;20099;-73
2024/01/30 09:26:47;;;;;;;13.02;6.55;;;10.40;99.90;;;;;;5034727;28;20061;-74
2024/01/30 09:29:13;;;;;;;10.60;6.28;;;10.50;99.90;;;;;;5053399;28;20041;-74
2024/01/30 09:31:38;;;;;;;9.68;6.15;;;10.50;99.90;;;;;;5055039;28;20102;-74
2024/01/30 09:34:04;;;;;;;10.18;5.90;;;10.50;99.90;;;;;;5038324;28;20036;-73
2024/01/30 09:36:30;;;;;;;9.02;5.65;;;10.50;99.90;;;;;;5033618;28;20064;-73
2024/01/30 09:38:55;;;;;;;12.40;7.07;;;10.60;99.90;;;;;;5033985;28;20389;-73
2024/01/30 09:41:24;;;;;;;10.60;5.60;;;10.60;99.90;;;;;;5034735;28;20422;-74
2024/01/30 09:43:51;;;;;;;11.15;6.43;;;10.70;99.90;;;;;;5034282;28;20044;-73
2024/01/30 09:46:20;;;;;;;10.48;6.60;;;10.70;99.90;;;;;;5034986;28;20388;-74
2024/01/30 09:48:49;;;;;;;10.13;7.13;;;10.80;99.90;;;;;;5036435;28;20501;-73
2024/01/30 09:51:16;;;;;;;12.68;6.93;;;10.80;99.90;;;;;;5034779;28;20040;-74
2024/01/30 09:53:43;;;;;;;13.43;6.70;;;10.90;99.90;;;;;;5033984;28;20018;-74
2024/01/30 09:56:09;;;;;;;10.30;6.15;;;10.90;99.90;;;;;;5034300;28;20025;-73
2024/01/30 09:58:35;;;;;;;9.88;6.32;;;11.00;99.90;;;;;;5034947;28;20032;-73
2024/01/30 10:01:00;;;;;;;12.80;5.93;;;11.10;99.90;;;;;;5034074;28;20021;-74
2024/01/30 10:03:26;;;;;;;11.05;7.00;;;11.10;99.90;;;;;;5034599;28;20025;-73
2024/01/30 10:05:52;;;;;;;10.57;6.57;;;11.20;99.90;;;;;;5033872;28;20025;-73
2024/01/30 10:08:21;;;;;;;12.32;6.70;;;11.30;99.90;;;;;;5033628;28;20481;-74
2024/01/30 10:10:48;;;;;;;13.07;6.72;;;11.40;99.90;;;;;;5034014;28;20108;-74
2024/01/30 10:13:13;;;;;;;13.75;6.85;;;11.40;99.90;;;;;;5034328;28;20139;-74
2024/01/30 10:15:40;;;;;;;13.68;7.40;;;11.40;99.90;;;;;;5033060;28;20503;-74
2024/01/30 10:18:06;;;;;;;11.10;6.15;;;11.40;99.90;;;;;;5033781;28;20018;-74
2024/01/30 10:20:32;;;;;;;11.27;6.97;;;11.40;99.90;;;;;;5033922;28;20025;-73
2024/01/30 10:22:58;;;;;;;11.68;6.18;;;11.40;99.90;;;;;;5033040;28;20421;-74
2024/01/30 10:25:26;;;;;;;10.07;6.38;;;11.40;99.90;;;;;;5033999;28;20082;-74
2024/01/30 10:27:55;;;;;;;11.73;7.05;;;11.40;99.90;;;;;;5033866;28;20574;-74
2024/01/30 10:30:24;;;;;;;12.60;6.40;;;11.40;99.90;;;;;;5033903;28;20056;-73
2024/01/30 10:32:50;;;;;;;11.07;6.80;;;11.40;99.90;;;;;;5032908;28;20018;-73
2024/01/30 10:35:16;;;;;;;13.75;6.93;;;11.40;99.90;;;;;;5033752;28;20049;-73
2024/01/30 10:37:47;;;;;;;14.60;6.88;;;11.40;99.90;;;;;;5033035;28;20087;-75
2024/01/30 10:40:15;;;;;;;11.60;6.35;;;11.40;99.90;;;;;;5051094;28;20036;-73
2024/01/30 10:42:44;;;;;;;11.90;6.47;;;11.40;99.90;;;;;;5033589;28;20145;-74
2024/01/30 10:45:17;;;;;;;13.90;6.28;;;11.40;99.90;;;;;;5033585;28;20021;-74
2024/01/30 10:47:57;;;;;;;15.35;7.07;;;11.50;99.90;;;;;;5033311;28;20529;-74
2024/01/30 10:50:24;;;;;;;10.45;6.53;;;11.60;99.90;;;;;;5037555;28;20128;-74
2024/01/30 10:52:50;;;;;;;11.38;6.85;;;11.70;99.90;;;;;;5031734;28;20021;-74
2024/01/30 10:55:18;;;;;;;11.15;6.88;;;11.70;99.90;;;;;;5033754;28;20030;-73
2024/01/30 10:57:43;;;;;;;14.80;6.85;;;11.70;99.90;;;;;;5045911;28;20094;-74
2024/01/30 11:00:11;;;;;;;13.80;6.00;;;11.80;99.90;;;;;;5044357;28;20045;-73
2024/01/30 11:02:44;;;;;;;10.23;6.07;;;11.80;99.90;;;;;;5033358;28;20390;-74
2024/01/30 11:05:10;;;;;;;;;;;11.90;99.90;;;;;;5033920;28;20021;-74
2024/01/30 11:07:35;;;;;;;12.63;5.60;;;11.90;99.90;;;;;;5037772;28;19915;-73
2024/01/30 11:10:03;;;;;;;10.02;5.43;;;11.90;99.90;;;;;;5032805;28;20084;-74
2024/01/30 11:12:33;;;;;;;12.40;5.97;;;12.00;99.90;;;;;;5032841;28;20033;-74
2024/01/30 11:15:09;;;;;;;6.88;4.88;;;12.10;99.90;;;;;;5032914;28;20388;-74
2024/01/30 11:17:49;;;;;;;11.27;6.30;;;12.10;99.90;;;;;;5033279;28;20026;-73
2024/01/30 11:20:15;;;;;;;10.65;5.38;;;12.20;99.90;;;;;;5032840;28;20030;-74
2024/01/30 11:23:05;;;;;;;9.52;5.47;;;12.20;99.90;;;;;;5032933;28;20393;-74
2024/01/30 11:25:32;;;;;;;12.23;4.65;;;12.20;99.90;;;;;;5032978;28;20022;-73
2024/01/30 11:27:58;;;;;;;10.38;5.05;;;12.20;99.90;;;;;;5032513;28;20033;-74
2024/01/30 11:30:28;;;;;;;10.57;5.65;;;12.20;99.90;;;;;;5032892;28;20038;-73
2024/01/30 11:33:08;;;;;;;12.73;5.72;;;12.30;99.90;;;;;;5032612;28;20021;-73
2024/01/30 11:35:42;;;;;;;11.45;5.70;;;12.30;99.90;;;;;;5033048;28;20420;-73
2024/01/30 11:38:09;;;;;;;8.90;5.20;;;12.30;99.90;;;;;;5032987;28;20067;-73
2024/01/30 11:40:37;;;;;;;9.40;5.20;;;12.40;99.90;;;;;;5034122;28;20714;-73
2024/01/30 11:43:04;;;;;;;10.70;6.10;;;12.50;99.90;;;;;;5033623;28;20037;-73
2024/01/30 11:45:30;;;;;;;9.98;4.93;;;12.70;99.90;;;;;;5032429;28;20030;-73
2024/01/30 11:47:56;;;;;;;7.50;4.55;;;12.80;99.90;;;;;;5032457;28;20042;-73
2024/01/30 11:50:22;;;;;;;12.43;4.78;;;13.00;99.90;;;;;;5032406;28;20430;-73
2024/01/30 11:52:48;;;;;;;8.57;3.65;;;13.00;99.90;;;;;;5032031;28;20053;-73
2024/01/30 11:55:18;;;;;;;6.72;3.47;;;13.00;99.90;;;;;;5033278;28;20037;-73
2024/01/30 11:57:44;;;;;;;11.60;4.45;;;13.10;99.90;;;;;;5038770;28;20017;-73
2024/01/30 12:00:18;;;;;;;6.28;3.35;;;13.00;99.90;;;;;;5030885;28;20076;-73
2024/01/30 12:02:48;;;;;;;6.32;2.83;;;13.00;99.90;;;;;;5017197;28;20501;-73
2024/01/30 12:05:14;;;;;;;10.68;3.17;;;12.90;99.90;;;;;;5032230;28;20086;-73
2024/01/30 12:07:39;;;;;;;9.40;3.60;;;12.80;99.90;;;;;;5037630;28;20108;-73
2024/01/30 12:10:05;;;;;;;6.30;3.15;;;12.70;99.90;;;;;;5030079;28;20037;-73
2024/01/30 12:12:31;;;;;;;8.30;3.00;;;12.70;99.90;;;;;;5032194;28;20017;-73
2024/01/30 12:14:57;;;;;;;5.25;2.95;;;12.60;99.90;;;;;;5031678;28;20028;-73
2024/01/30 12:17:34;;;;;;;4.93;2.45;;;12.60;99.90;;;;;;5033072;28;20028;-73
2024/01/30 12:20:06;;;;;;;6.28;2.45;;;12.40;99.90;;;;;;5031306;28;20104;-73
2024/01/30 12:22:42;;;;;;;7.13;2.30;;;12.40;99.90;;;;;;5032040;28;20021;-73
2024/01/30 12:25:09;;;;;;;5.32;1.90;;;12.30;99.90;;;;;;5032316;28;20397;-73
2024/01/30 12:27:35;;;;;;;6.38;1.50;;;12.20;99.90;;;;;;5031720;28;20037;-73
2024/01/30 12:30:01;;;;;;;3.65;1.00;;;12.20;99.90;;;;;;5030668;28;20045;-73
2024/01/30 12:32:29;;;;;;;3.75;0.75;;;12.20;99.90;;;;;;5032175;28;20075;-73
2024/01/30 12:34:56;;;;;;;2.60;0.80;;;12.20;99.90;;;;;;5030904;28;20032;-73
2024/01/30 12:37:24;;;;;;;5.13;0.77;;;12.20;99.90;;;;;;5032723;28;20071;-74
2024/01/30 12:39:51;;;;;;;4.28;0.70;;;12.20;99.90;;;;;;5030858;28;20417;-74
2024/01/30 12:42:17;;;;;;;3.92;0.70;;;12.20;99.90;;;;;;5031802;28;20021;-74